sensor_id;sensor_type;location;lat;lon;timestamp;pressure;altitude;pressure_sealevel;temperature;humidity
81319;BME280;70784;48.420;14.830;2023-07-22T00:00:30;92522.72;;;14.48;80.03
81319;BME280;70784;48.420;14.830;2023-07-22T00:03:15;92521.03;;;14.34;80.03
81319;BME280;70784;48.420;14.830;2023-07-22T00:06:07;92518.88;;;14.36;80.44
81319;BME280;70784;48.420;14.830;2023-07-22T00:08:52;92535.22;;;14.16;81.27
81319;BME280;70784;48.420;14.830;2023-07-22T00:11:38;92531.03;;;14.24;80.55
81319;BME280;70784;48.420;14.830;2023-07-22T00:14:22;92535.84;;;14.22;80.27
81319;BME280;70784;48.420;14.830;2023-07-22T00:17:07;92539.41;;;14.09;81.26
81319;BME280;70784;48.420;14.830;2023-07-22T00:19:52;92544.19;;;13.89;82.48
81319;BME280;70784;48.420;14.830;2023-07-22T00:22:40;92547.56;;;13.90;82.23
81319;BME280;70784;48.420;14.830;2023-07-22T00:25:25;92555.72;;;13.88;81.83
81319;BME280;70784;48.420;14.830;2023-07-22T00:28:09;92550.22;;;13.73;82.76
81319;BME280;70784;48.420;14.830;2023-07-22T00:30:54;92553.59;;;13.73;82.10
81319;BME280;70784;48.420;14.830;2023-07-22T00:33:38;92564.19;;;13.77;82.78
81319;BME280;70784;48.420;14.830;2023-07-22T00:36:23;92562.97;;;13.65;83.54
81319;BME280;70784;48.420;14.830;2023-07-22T00:39:07;92559.19;;;14.18;81.09
81319;BME280;70784;48.420;14.830;2023-07-22T00:41:51;92565.41;;;13.88;81.62
81319;BME280;70784;48.420;14.830;2023-07-22T00:44:36;92586.44;;;13.40;84.90
81319;BME280;70784;48.420;14.830;2023-07-22T00:47:22;92579.06;;;13.85;82.87
81319;BME280;70784;48.420;14.830;2023-07-22T00:50:07;92586.38;;;14.17;81.62
81319;BME280;70784;48.420;14.830;2023-07-22T00:52:52;92580.78;;;14.45;80.19
81319;BME280;70784;48.420;14.830;2023-07-22T00:55:39;92584.94;;;14.46;80.66
81319;BME280;70784;48.420;14.830;2023-07-22T00:58:25;92579.38;;;14.85;79.10
81319;BME280;70784;48.420;14.830;2023-07-22T01:01:09;92580.38;;;15.01;78.51
81319;BME280;70784;48.420;14.830;2023-07-22T01:03:54;92573.88;;;15.07;77.50
81319;BME280;70784;48.420;14.830;2023-07-22T01:06:39;92579.47;;;14.97;78.31
81319;BME280;70784;48.420;14.830;2023-07-22T01:09:24;92580.75;;;14.53;79.62
81319;BME280;70784;48.420;14.830;2023-07-22T01:12:09;92580.34;;;14.25;81.03
81319;BME280;70784;48.420;14.830;2023-07-22T01:14:54;92583.47;;;14.10;81.12
81319;BME280;70784;48.420;14.830;2023-07-22T01:17:39;92574.97;;;14.77;78.65
81319;BME280;70784;48.420;14.830;2023-07-22T01:20:24;92575.34;;;14.96;77.40
81319;BME280;70784;48.420;14.830;2023-07-22T01:23:09;92572.84;;;15.00;76.73
81319;BME280;70784;48.420;14.830;2023-07-22T01:25:54;92577.56;;;15.06;76.90
81319;BME280;70784;48.420;14.830;2023-07-22T01:28:39;92585.94;;;14.91;76.41
81319;BME280;70784;48.420;14.830;2023-07-22T01:31:24;92585.66;;;14.93;76.01
81319;BME280;70784;48.420;14.830;2023-07-22T01:34:09;92576.84;;;14.68;76.73
81319;BME280;70784;48.420;14.830;2023-07-22T01:36:53;92588.16;;;14.34;78.45
81319;BME280;70784;48.420;14.830;2023-07-22T01:39:38;92579.38;;;14.56;77.57
81319;BME280;70784;48.420;14.830;2023-07-22T01:42:22;92578.63;;;14.38;78.04
81319;BME280;70784;48.420;14.830;2023-07-22T01:45:08;92578.31;;;14.48;77.28
81319;BME280;70784;48.420;14.830;2023-07-22T01:47:52;92585.75;;;14.20;78.78
81319;BME280;70784;48.420;14.830;2023-07-22T01:50:37;92595.38;;;14.46;78.17
81319;BME280;70784;48.420;14.830;2023-07-22T01:53:21;92596.28;;;14.50;78.97
81319;BME280;70784;48.420;14.830;2023-07-22T01:56:06;92608.00;;;14.43;79.44
81319;BME280;70784;48.420;14.830;2023-07-22T01:58:50;92616.78;;;14.22;79.76
81319;BME280;70784;48.420;14.830;2023-07-22T02:01:35;92617.41;;;14.74;78.16
81319;BME280;70784;48.420;14.830;2023-07-22T02:04:19;92617.56;;;14.77;77.56
81319;BME280;70784;48.420;14.830;2023-07-22T02:07:04;92612.38;;;14.60;78.16
81319;BME280;70784;48.420;14.830;2023-07-22T02:09:48;92616.94;;;14.80;78.25
81319;BME280;70784;48.420;14.830;2023-07-22T02:12:36;92608.19;;;15.06;76.62
81319;BME280;70784;48.420;14.830;2023-07-22T02:15:20;92623.53;;;14.78;77.67
81319;BME280;70784;48.420;14.830;2023-07-22T02:18:06;92621.47;;;14.92;76.87
81319;BME280;70784;48.420;14.830;2023-07-22T02:20:52;92627.69;;;14.79;77.32
81319;BME280;70784;48.420;14.830;2023-07-22T02:23:37;92623.56;;;14.05;80.54
81319;BME280;70784;48.420;14.830;2023-07-22T02:26:22;92627.09;;;13.84;80.43
81319;BME280;70784;48.420;14.830;2023-07-22T02:29:06;92630.78;;;13.83;80.51
81319;BME280;70784;48.420;14.830;2023-07-22T02:31:52;92632.31;;;13.84;80.72
81319;BME280;70784;48.420;14.830;2023-07-22T02:34:37;92637.72;;;13.79;80.46
81319;BME280;70784;48.420;14.830;2023-07-22T02:37:22;92624.03;;;13.73;80.97
81319;BME280;70784;48.420;14.830;2023-07-22T02:40:06;92628.63;;;13.59;81.81
81319;BME280;70784;48.420;14.830;2023-07-22T02:42:52;92637.69;;;13.44;82.49
81319;BME280;70784;48.420;14.830;2023-07-22T02:45:36;92645.38;;;13.66;81.02
81319;BME280;70784;48.420;14.830;2023-07-22T02:48:21;92645.84;;;13.77;81.43
81319;BME280;70784;48.420;14.830;2023-07-22T02:51:07;92644.47;;;13.71;81.51
81319;BME280;70784;48.420;14.830;2023-07-22T02:53:52;92655.03;;;13.75;81.69
81319;BME280;70784;48.420;14.830;2023-07-22T02:56:37;92655.34;;;13.47;83.48
81319;BME280;70784;48.420;14.830;2023-07-22T02:59:22;92653.50;;;13.56;82.81
81319;BME280;70784;48.420;14.830;2023-07-22T03:02:06;92658.59;;;13.70;82.11
81319;BME280;70784;48.420;14.830;2023-07-22T03:04:51;92661.97;;;13.71;82.09
81319;BME280;70784;48.420;14.830;2023-07-22T03:07:39;92658.88;;;13.60;82.82
81319;BME280;70784;48.420;14.830;2023-07-22T03:10:24;92666.41;;;13.79;81.82
81319;BME280;70784;48.420;14.830;2023-07-22T03:13:13;92664.88;;;14.03;80.57
81319;BME280;70784;48.420;14.830;2023-07-22T03:15:57;92667.00;;;13.58;81.79
81319;BME280;70784;48.420;14.830;2023-07-22T03:18:42;92665.09;;;13.16;83.76
81319;BME280;70784;48.420;14.830;2023-07-22T03:21:27;92664.47;;;13.19;83.12
81319;BME280;70784;48.420;14.830;2023-07-22T03:24:11;92669.09;;;13.22;82.02
81319;BME280;70784;48.420;14.830;2023-07-22T03:26:56;92659.28;;;13.19;82.46
81319;BME280;70784;48.420;14.830;2023-07-22T03:29:41;92661.69;;;12.76;84.65
81319;BME280;70784;48.420;14.830;2023-07-22T03:32:25;92656.19;;;13.17;81.98
81319;BME280;70784;48.420;14.830;2023-07-22T03:35:10;92662.94;;;13.18;81.90
81319;BME280;70784;48.420;14.830;2023-07-22T03:37:55;92654.75;;;13.02;81.87
81319;BME280;70784;48.420;14.830;2023-07-22T03:40:39;92661.41;;;12.77;82.79
81319;BME280;70784;48.420;14.830;2023-07-22T03:43:24;92669.03;;;13.05;81.73
81319;BME280;70784;48.420;14.830;2023-07-22T03:46:09;92667.09;;;13.19;80.70
81319;BME280;70784;48.420;14.830;2023-07-22T03:48:53;92676.97;;;13.00;81.63
81319;BME280;70784;48.420;14.830;2023-07-22T03:51:38;92683.56;;;12.97;81.86
81319;BME280;70784;48.420;14.830;2023-07-22T03:54:23;92685.34;;;12.79;82.12
81319;BME280;70784;48.420;14.830;2023-07-22T03:57:07;92692.00;;;13.03;81.05
81319;BME280;70784;48.420;14.830;2023-07-22T03:59:53;92699.75;;;12.85;82.17
81319;BME280;70784;48.420;14.830;2023-07-22T04:02:38;92698.28;;;12.62;83.05
81319;BME280;70784;48.420;14.830;2023-07-22T04:05:23;92696.06;;;12.55;83.64
81319;BME280;70784;48.420;14.830;2023-07-22T04:08:07;92701.13;;;12.52;84.15
81319;BME280;70784;48.420;14.830;2023-07-22T04:10:53;92706.81;;;12.85;82.94
81319;BME280;70784;48.420;14.830;2023-07-22T04:13:37;92707.06;;;12.75;83.26
81319;BME280;70784;48.420;14.830;2023-07-22T04:16:22;92707.00;;;12.66;83.76
81319;BME280;70784;48.420;14.830;2023-07-22T04:19:06;92705.25;;;13.15;81.91
81319;BME280;70784;48.420;14.830;2023-07-22T04:21:51;92713.41;;;12.60;84.24
81319;BME280;70784;48.420;14.830;2023-07-22T04:24:35;92712.03;;;12.54;85.21
81319;BME280;70784;48.420;14.830;2023-07-22T04:27:20;92712.78;;;12.85;82.37
81319;BME280;70784;48.420;14.830;2023-07-22T04:30:04;92716.50;;;12.62;83.56
81319;BME280;70784;48.420;14.830;2023-07-22T04:32:49;92720.66;;;12.63;83.64
81319;BME280;70784;48.420;14.830;2023-07-22T04:35:37;92714.91;;;12.83;82.89
81319;BME280;70784;48.420;14.830;2023-07-22T04:38:21;92712.34;;;12.61;83.58
81319;BME280;70784;48.420;14.830;2023-07-22T04:41:06;92722.25;;;12.50;83.75
81319;BME280;70784;48.420;14.830;2023-07-22T04:43:50;92733.34;;;12.87;83.88
81319;BME280;70784;48.420;14.830;2023-07-22T04:46:35;92720.63;;;13.25;80.53
81319;BME280;70784;48.420;14.830;2023-07-22T04:49:20;92727.09;;;12.97;81.94
81319;BME280;70784;48.420;14.830;2023-07-22T04:52:05;92723.47;;;12.75;82.08
81319;BME280;70784;48.420;14.830;2023-07-22T04:54:50;92723.78;;;12.82;82.87
81319;BME280;70784;48.420;14.830;2023-07-22T04:57:35;92729.97;;;12.86;82.49
81319;BME280;70784;48.420;14.830;2023-07-22T05:00:20;92734.91;;;12.97;81.97
81319;BME280;70784;48.420;14.830;2023-07-22T05:03:05;92740.03;;;13.50;80.34
81319;BME280;70784;48.420;14.830;2023-07-22T05:05:49;92738.97;;;13.11;81.08
81319;BME280;70784;48.420;14.830;2023-07-22T05:08:34;92742.94;;;13.09;80.61
81319;BME280;70784;48.420;14.830;2023-07-22T05:11:19;92744.06;;;13.16;81.43
81319;BME280;70784;48.420;14.830;2023-07-22T05:14:03;92746.53;;;13.21;81.15
81319;BME280;70784;48.420;14.830;2023-07-22T05:16:48;92758.06;;;13.29;80.38
81319;BME280;70784;48.420;14.830;2023-07-22T05:19:32;92752.75;;;13.51;80.07
81319;BME280;70784;48.420;14.830;2023-07-22T05:22:17;92759.09;;;13.19;78.56
81319;BME280;70784;48.420;14.830;2023-07-22T05:25:01;92756.72;;;13.40;78.54
81319;BME280;70784;48.420;14.830;2023-07-22T05:27:46;92758.13;;;13.46;78.69
81319;BME280;70784;48.420;14.830;2023-07-22T05:30:31;92750.91;;;13.43;79.12
81319;BME280;70784;48.420;14.830;2023-07-22T05:33:15;92760.84;;;13.41;78.99
81319;BME280;70784;48.420;14.830;2023-07-22T05:36:00;92761.06;;;13.53;78.25
81319;BME280;70784;48.420;14.830;2023-07-22T05:38:45;92754.84;;;13.32;78.70
81319;BME280;70784;48.420;14.830;2023-07-22T05:41:30;92755.84;;;13.53;77.26
81319;BME280;70784;48.420;14.830;2023-07-22T05:44:14;92752.38;;;14.01;75.42
81319;BME280;70784;48.420;14.830;2023-07-22T05:46:59;92750.81;;;13.83;75.26
81319;BME280;70784;48.420;14.830;2023-07-22T05:49:43;92745.63;;;13.91;75.70
81319;BME280;70784;48.420;14.830;2023-07-22T05:52:28;92747.47;;;13.91;76.23
81319;BME280;70784;48.420;14.830;2023-07-22T05:55:12;92747.81;;;14.50;73.54
81319;BME280;70784;48.420;14.830;2023-07-22T05:57:57;92745.78;;;14.03;71.65
81319;BME280;70784;48.420;14.830;2023-07-22T06:00:41;92749.31;;;14.33;71.51
81319;BME280;70784;48.420;14.830;2023-07-22T06:03:26;92741.94;;;14.70;70.03
81319;BME280;70784;48.420;14.830;2023-07-22T06:06:10;92740.41;;;14.17;69.01
81319;BME280;70784;48.420;14.830;2023-07-22T06:08:55;92739.53;;;14.39;69.05
81319;BME280;70784;48.420;14.830;2023-07-22T06:11:39;92754.44;;;14.47;68.39
81319;BME280;70784;48.420;14.830;2023-07-22T06:14:24;92749.91;;;14.73;66.22
81319;BME280;70784;48.420;14.830;2023-07-22T06:17:08;92747.47;;;14.77;67.83
81319;BME280;70784;48.420;14.830;2023-07-22T06:19:53;92748.09;;;14.57;66.54
81319;BME280;70784;48.420;14.830;2023-07-22T06:22:37;92756.63;;;15.00;64.69
81319;BME280;70784;48.420;14.830;2023-07-22T06:25:22;92760.59;;;15.06;64.77
81319;BME280;70784;48.420;14.830;2023-07-22T06:28:06;92761.34;;;15.15;64.88
81319;BME280;70784;48.420;14.830;2023-07-22T06:30:51;92767.94;;;15.22;63.62
81319;BME280;70784;48.420;14.830;2023-07-22T06:33:35;92764.72;;;15.63;64.75
81319;BME280;70784;48.420;14.830;2023-07-22T06:36:20;92763.47;;;15.31;63.67
81319;BME280;70784;48.420;14.830;2023-07-22T06:39:04;92761.84;;;15.55;62.16
81319;BME280;70784;48.420;14.830;2023-07-22T06:41:49;92756.84;;;15.25;62.85
81319;BME280;70784;48.420;14.830;2023-07-22T06:44:34;92757.38;;;15.47;62.39
81319;BME280;70784;48.420;14.830;2023-07-22T06:47:18;92753.81;;;15.61;61.95
81319;BME280;70784;48.420;14.830;2023-07-22T06:50:03;92753.47;;;15.91;61.28
81319;BME280;70784;48.420;14.830;2023-07-22T06:52:48;92751.63;;;16.13;60.72
81319;BME280;70784;48.420;14.830;2023-07-22T06:55:33;92754.44;;;16.28;59.35
81319;BME280;70784;48.420;14.830;2023-07-22T06:58:19;92751.19;;;16.11;60.21
81319;BME280;70784;48.420;14.830;2023-07-22T07:01:03;92760.75;;;16.27;59.04
81319;BME280;70784;48.420;14.830;2023-07-22T07:03:48;92764.34;;;16.23;58.74
81319;BME280;70784;48.420;14.830;2023-07-22T07:06:32;92765.38;;;16.84;57.83
81319;BME280;70784;48.420;14.830;2023-07-22T07:09:17;92764.78;;;16.99;56.90
81319;BME280;70784;48.420;14.830;2023-07-22T07:12:01;92772.25;;;16.77;57.09
81319;BME280;70784;48.420;14.830;2023-07-22T07:14:46;92776.34;;;16.65;57.19
81319;BME280;70784;48.420;14.830;2023-07-22T07:17:30;92783.47;;;16.65;54.81
81319;BME280;70784;48.420;14.830;2023-07-22T07:20:14;92780.00;;;16.73;55.61
81319;BME280;70784;48.420;14.830;2023-07-22T07:22:59;92788.28;;;16.96;55.96
81319;BME280;70784;48.420;14.830;2023-07-22T07:25:43;92781.66;;;16.57;56.24
81319;BME280;70784;48.420;14.830;2023-07-22T07:28:28;92785.19;;;16.82;54.76
81319;BME280;70784;48.420;14.830;2023-07-22T07:31:13;92785.56;;;17.62;55.74
81319;BME280;70784;48.420;14.830;2023-07-22T07:33:57;92791.31;;;17.43;54.29
81319;BME280;70784;48.420;14.830;2023-07-22T07:36:42;92780.72;;;17.52;53.40
81319;BME280;70784;48.420;14.830;2023-07-22T07:39:26;92780.00;;;17.63;53.92
81319;BME280;70784;48.420;14.830;2023-07-22T07:42:11;92786.88;;;17.92;53.18
81319;BME280;70784;48.420;14.830;2023-07-22T07:44:55;92783.16;;;18.05;51.14
81319;BME280;70784;48.420;14.830;2023-07-22T07:47:40;92775.94;;;17.66;51.97
81319;BME280;70784;48.420;14.830;2023-07-22T07:50:24;92781.50;;;17.52;52.49
81319;BME280;70784;48.420;14.830;2023-07-22T07:53:09;92782.81;;;17.95;53.10
81319;BME280;70784;48.420;14.830;2023-07-22T07:55:53;92786.97;;;17.83;50.28
81319;BME280;70784;48.420;14.830;2023-07-22T07:58:38;92786.78;;;17.89;50.94
81319;BME280;70784;48.420;14.830;2023-07-22T08:01:23;92794.53;;;17.97;51.04
81319;BME280;70784;48.420;14.830;2023-07-22T08:04:10;92794.63;;;18.13;50.21
81319;BME280;70784;48.420;14.830;2023-07-22T08:06:55;92795.63;;;18.08;49.80
81319;BME280;70784;48.420;14.830;2023-07-22T08:09:39;92798.84;;;18.42;50.30
81319;BME280;70784;48.420;14.830;2023-07-22T08:12:23;92795.41;;;18.01;49.90
81319;BME280;70784;48.420;14.830;2023-07-22T08:15:08;92797.59;;;18.11;50.53
81319;BME280;70784;48.420;14.830;2023-07-22T08:17:53;92802.84;;;18.11;48.73
81319;BME280;70784;48.420;14.830;2023-07-22T08:20:37;92794.06;;;18.19;48.88
81319;BME280;70784;48.420;14.830;2023-07-22T08:23:22;92800.38;;;19.11;48.56
81319;BME280;70784;48.420;14.830;2023-07-22T08:26:07;92802.00;;;19.15;46.23
81319;BME280;70784;48.420;14.830;2023-07-22T08:28:51;92803.78;;;19.55;43.90
81319;BME280;70784;48.420;14.830;2023-07-22T08:31:35;92800.09;;;19.75;45.24
81319;BME280;70784;48.420;14.830;2023-07-22T08:34:20;92803.25;;;19.06;46.98
81319;BME280;70784;48.420;14.830;2023-07-22T08:37:04;92797.41;;;19.12;45.78
81319;BME280;70784;48.420;14.830;2023-07-22T08:39:49;92812.78;;;19.26;46.12
81319;BME280;70784;48.420;14.830;2023-07-22T08:42:35;92806.88;;;20.23;45.84
81319;BME280;70784;48.420;14.830;2023-07-22T08:45:21;92806.28;;;20.14;43.37
81319;BME280;70784;48.420;14.830;2023-07-22T08:48:08;92819.94;;;19.25;43.46
81319;BME280;70784;48.420;14.830;2023-07-22T08:51:17;92815.53;;;19.45;44.84
81319;BME280;70784;48.420;14.830;2023-07-22T08:54:02;92807.63;;;19.57;41.50
81319;BME280;70784;48.420;14.830;2023-07-22T08:56:47;92811.09;;;20.43;40.82
81319;BME280;70784;48.420;14.830;2023-07-22T08:59:32;92819.88;;;20.67;40.61
81319;BME280;70784;48.420;14.830;2023-07-22T09:02:18;92813.56;;;19.54;42.57
81319;BME280;70784;48.420;14.830;2023-07-22T09:05:02;92824.75;;;19.51;42.08
81319;BME280;70784;48.420;14.830;2023-07-22T09:07:47;92815.84;;;20.73;40.44
81319;BME280;70784;48.420;14.830;2023-07-22T09:10:33;92816.25;;;20.05;41.32
81319;BME280;70784;48.420;14.830;2023-07-22T09:13:18;92817.72;;;21.30;39.93
81319;BME280;70784;48.420;14.830;2023-07-22T09:16:05;92808.53;;;21.66;38.31
81319;BME280;70784;48.420;14.830;2023-07-22T09:18:50;92810.81;;;19.98;43.66
81319;BME280;70784;48.420;14.830;2023-07-22T09:21:34;92819.47;;;20.65;43.67
81319;BME280;70784;48.420;14.830;2023-07-22T09:24:21;92821.97;;;19.16;46.57
81319;BME280;70784;48.420;14.830;2023-07-22T09:27:06;92814.47;;;19.62;46.89
81319;BME280;70784;48.420;14.830;2023-07-22T09:29:50;92807.25;;;20.95;42.31
81319;BME280;70784;48.420;14.830;2023-07-22T09:32:35;92809.94;;;20.41;45.00
81319;BME280;70784;48.420;14.830;2023-07-22T09:35:22;92802.94;;;20.87;41.78
81319;BME280;70784;48.420;14.830;2023-07-22T09:38:06;92810.56;;;21.11;40.65
81319;BME280;70784;48.420;14.830;2023-07-22T09:40:52;92803.16;;;20.98;43.01
81319;BME280;70784;48.420;14.830;2023-07-22T09:43:38;92801.69;;;21.00;42.49
81319;BME280;70784;48.420;14.830;2023-07-22T09:46:31;92815.75;;;19.84;44.01
81319;BME280;70784;48.420;14.830;2023-07-22T09:49:17;92808.66;;;21.50;41.23
81319;BME280;70784;48.420;14.830;2023-07-22T09:52:09;92808.38;;;19.89;43.43
81319;BME280;70784;48.420;14.830;2023-07-22T09:54:58;92803.41;;;19.41;46.86
81319;BME280;70784;48.420;14.830;2023-07-22T09:57:45;92811.28;;;20.19;46.03
81319;BME280;70784;48.420;14.830;2023-07-22T10:00:34;92818.47;;;20.03;45.59
81319;BME280;70784;48.420;14.830;2023-07-22T10:03:19;92803.31;;;20.51;44.22
81319;BME280;70784;48.420;14.830;2023-07-22T10:06:07;92802.03;;;20.79;43.79
81319;BME280;70784;48.420;14.830;2023-07-22T10:08:52;92804.44;;;21.27;39.76
81319;BME280;70784;48.420;14.830;2023-07-22T10:11:37;92803.25;;;21.89;39.92
81319;BME280;70784;48.420;14.830;2023-07-22T10:14:22;92795.84;;;22.51;37.18
81319;BME280;70784;48.420;14.830;2023-07-22T10:17:07;92785.84;;;23.71;36.54
81319;BME280;70784;48.420;14.830;2023-07-22T10:19:53;92792.09;;;23.15;37.02
81319;BME280;70784;48.420;14.830;2023-07-22T10:22:39;92787.88;;;23.88;34.72
81319;BME280;70784;48.420;14.830;2023-07-22T10:25:24;92781.41;;;25.20;33.72
81319;BME280;70784;48.420;14.830;2023-07-22T10:28:09;92781.28;;;23.71;36.22
81319;BME280;70784;48.420;14.830;2023-07-22T10:30:55;92784.84;;;23.90;36.91
81319;BME280;70784;48.420;14.830;2023-07-22T10:33:41;92773.63;;;24.69;34.79
81319;BME280;70784;48.420;14.830;2023-07-22T10:36:29;92772.75;;;26.36;31.23
81319;BME280;70784;48.420;14.830;2023-07-22T10:39:28;92778.88;;;28.45;27.59
81319;BME280;70784;48.420;14.830;2023-07-22T10:42:24;92773.94;;;25.89;30.79
81319;BME280;70784;48.420;14.830;2023-07-22T10:45:24;92767.72;;;27.61;29.32
81319;BME280;70784;48.420;14.830;2023-07-22T10:48:10;92769.97;;;24.98;31.60
81319;BME280;70784;48.420;14.830;2023-07-22T10:51:06;92770.06;;;25.44;32.01
81319;BME280;70784;48.420;14.830;2023-07-22T10:53:51;92763.69;;;27.90;29.30
81319;BME280;70784;48.420;14.830;2023-07-22T10:56:35;92770.50;;;26.31;29.70
81319;BME280;70784;48.420;14.830;2023-07-22T10:59:26;92771.56;;;25.31;31.26
81319;BME280;70784;48.420;14.830;2023-07-22T11:02:23;92766.72;;;28.75;26.20
81319;BME280;70784;48.420;14.830;2023-07-22T11:05:11;92762.41;;;27.61;28.52
81319;BME280;70784;48.420;14.830;2023-07-22T11:08:03;92763.56;;;28.05;26.32
81319;BME280;70784;48.420;14.830;2023-07-22T11:10:54;92771.47;;;26.98;28.35
81319;BME280;70784;48.420;14.830;2023-07-22T11:13:41;92770.66;;;30.11;24.89
81319;BME280;70784;48.420;14.830;2023-07-22T11:16:28;92759.13;;;29.64;24.01
81319;BME280;70784;48.420;14.830;2023-07-22T11:19:14;92755.94;;;28.48;25.76
81319;BME280;70784;48.420;14.830;2023-07-22T11:22:00;92765.75;;;29.26;24.96
81319;BME280;70784;48.420;14.830;2023-07-22T11:24:44;92754.81;;;29.97;24.19
81319;BME280;70784;48.420;14.830;2023-07-22T11:27:29;92752.91;;;27.49;27.20
81319;BME280;70784;48.420;14.830;2023-07-22T11:30:14;92742.25;;;30.80;23.68
81319;BME280;70784;48.420;14.830;2023-07-22T11:32:58;92743.31;;;28.11;25.34
81319;BME280;70784;48.420;14.830;2023-07-22T11:35:43;92734.00;;;26.03;28.37
81319;BME280;70784;48.420;14.830;2023-07-22T11:38:27;92734.09;;;30.25;24.43
81319;BME280;70784;48.420;14.830;2023-07-22T11:41:12;92738.56;;;28.29;25.88
81319;BME280;70784;48.420;14.830;2023-07-22T11:43:58;92735.16;;;27.25;27.81
81319;BME280;70784;48.420;14.830;2023-07-22T11:46:53;92738.00;;;26.86;27.80
81319;BME280;70784;48.420;14.830;2023-07-22T11:49:40;92733.31;;;29.24;25.73
81319;BME280;70784;48.420;14.830;2023-07-22T11:52:24;92728.34;;;25.80;29.96
81319;BME280;70784;48.420;14.830;2023-07-22T11:55:10;92734.34;;;26.44;29.94
81319;BME280;70784;48.420;14.830;2023-07-22T11:57:55;92718.06;;;25.43;29.86
81319;BME280;70784;48.420;14.830;2023-07-22T12:00:42;92728.75;;;24.46;31.78
81319;BME280;70784;48.420;14.830;2023-07-22T12:03:31;92728.59;;;23.22;32.64
81319;BME280;70784;48.420;14.830;2023-07-22T12:06:16;92725.31;;;28.59;25.81
81319;BME280;70784;48.420;14.830;2023-07-22T12:09:01;92717.00;;;27.68;27.34
81319;BME280;70784;48.420;14.830;2023-07-22T12:11:45;92714.94;;;31.05;24.10
81319;BME280;70784;48.420;14.830;2023-07-22T12:14:34;92719.38;;;30.56;23.29
81319;BME280;70784;48.420;14.830;2023-07-22T12:17:19;92714.28;;;25.83;29.59
81319;BME280;70784;48.420;14.830;2023-07-22T12:20:04;92709.94;;;26.57;28.48
81319;BME280;70784;48.420;14.830;2023-07-22T12:22:50;92715.38;;;25.36;29.34
81319;BME280;70784;48.420;14.830;2023-07-22T12:25:36;92711.41;;;24.66;31.29
81319;BME280;70784;48.420;14.830;2023-07-22T12:28:21;92721.28;;;24.00;31.71
81319;BME280;70784;48.420;14.830;2023-07-22T12:31:05;92717.78;;;26.99;27.57
81319;BME280;70784;48.420;14.830;2023-07-22T12:33:50;92716.88;;;25.16;29.49
81319;BME280;70784;48.420;14.830;2023-07-22T12:36:34;92723.75;;;25.95;29.22
81319;BME280;70784;48.420;14.830;2023-07-22T12:39:18;92716.63;;;27.66;25.62
81319;BME280;70784;48.420;14.830;2023-07-22T12:42:03;92722.06;;;27.97;25.72
81319;BME280;70784;48.420;14.830;2023-07-22T12:44:48;92724.47;;;26.38;29.37
81319;BME280;70784;48.420;14.830;2023-07-22T12:47:33;92721.59;;;28.09;26.72
81319;BME280;70784;48.420;14.830;2023-07-22T12:50:17;92721.00;;;26.48;27.94
81319;BME280;70784;48.420;14.830;2023-07-22T12:53:02;92712.66;;;29.24;25.72
81319;BME280;70784;48.420;14.830;2023-07-22T12:55:47;92704.03;;;25.85;29.04
81319;BME280;70784;48.420;14.830;2023-07-22T12:58:32;92715.59;;;24.67;32.25
81319;BME280;70784;48.420;14.830;2023-07-22T13:01:16;92708.19;;;23.67;32.59
81319;BME280;70784;48.420;14.830;2023-07-22T13:04:01;92713.19;;;23.79;32.10
81319;BME280;70784;48.420;14.830;2023-07-22T13:06:45;92706.63;;;26.31;29.92
81319;BME280;70784;48.420;14.830;2023-07-22T13:09:30;92691.00;;;26.23;29.22
81319;BME280;70784;48.420;14.830;2023-07-22T13:12:14;92700.06;;;24.76;31.15
81319;BME280;70784;48.420;14.830;2023-07-22T13:14:59;92700.56;;;25.31;29.97
81319;BME280;70784;48.420;14.830;2023-07-22T13:17:43;92693.81;;;27.62;27.79
81319;BME280;70784;48.420;14.830;2023-07-22T13:20:28;92700.16;;;33.17;21.40
81319;BME280;70784;48.420;14.830;2023-07-22T13:23:13;92695.41;;;31.77;21.33
81319;BME280;70784;48.420;14.830;2023-07-22T13:29:46;92696.81;;;27.08;29.01
81319;BME280;70784;48.420;14.830;2023-07-22T13:32:30;92695.31;;;27.00;27.34
81319;BME280;70784;48.420;14.830;2023-07-22T13:35:15;92687.16;;;26.49;28.04
81319;BME280;70784;48.420;14.830;2023-07-22T13:37:59;92686.78;;;26.47;29.24
81319;BME280;70784;48.420;14.830;2023-07-22T13:40:44;92695.78;;;30.47;23.01
81319;BME280;70784;48.420;14.830;2023-07-22T13:43:29;92702.22;;;28.42;25.05
81319;BME280;70784;48.420;14.830;2023-07-22T13:46:13;92703.25;;;28.86;24.88
81319;BME280;70784;48.420;14.830;2023-07-22T13:48:58;92695.81;;;27.95;25.04
81319;BME280;70784;48.420;14.830;2023-07-22T13:51:42;92693.22;;;26.56;27.40
81319;BME280;70784;48.420;14.830;2023-07-22T13:54:27;92685.19;;;30.21;24.11
81319;BME280;70784;48.420;14.830;2023-07-22T13:57:12;92684.47;;;30.60;22.27
81319;BME280;70784;48.420;14.830;2023-07-22T13:59:56;92692.28;;;30.50;22.33
81319;BME280;70784;48.420;14.830;2023-07-22T14:02:41;92686.97;;;29.30;22.92
81319;BME280;70784;48.420;14.830;2023-07-22T14:05:25;92681.94;;;29.86;24.48
81319;BME280;70784;48.420;14.830;2023-07-22T14:08:10;92682.59;;;30.96;21.86
81319;BME280;70784;48.420;14.830;2023-07-22T14:10:55;92678.09;;;29.87;23.70
81319;BME280;70784;48.420;14.830;2023-07-22T14:13:39;92682.56;;;26.56;27.05
81319;BME280;70784;48.420;14.830;2023-07-22T14:16:23;92679.31;;;25.74;28.13
81319;BME280;70784;48.420;14.830;2023-07-22T14:19:08;92684.06;;;29.71;24.25
81319;BME280;70784;48.420;14.830;2023-07-22T14:21:52;92689.59;;;30.50;21.70
81319;BME280;70784;48.420;14.830;2023-07-22T14:24:37;92689.59;;;30.50;22.26
81319;BME280;70784;48.420;14.830;2023-07-22T14:27:21;92683.25;;;33.16;19.74